Time;durP1;ratioP1;P1;durP2;ratioP2;P2;SDS_P1;SDS_P2;PMS_P1;PMS_P2;Temp;Humidity;BMP_temperature;BMP_pressure;BME280_temperature;BME280_humidity;BME280_pressure;Samples;Min_cycle;Max_cycle;Signal;HPM_P1;HPM_P2
2023/04/21 00:01:40;;;;;;;11.70;7.70;;;10.60;99.90;;;;;;5052924;28;20635;-77
2023/04/21 00:04:08;;;;;;;11.53;7.73;;;10.60;99.90;;;;;;5036072;28;20191;-76
2023/04/21 00:06:36;;;;;;;12.80;8.23;;;10.50;99.90;;;;;;5053730;28;20191;-77
2023/04/21 00:09:04;;;;;;;23.07;8.97;;;10.50;99.90;;;;;;5052804;28;20191;-76
2023/04/21 00:11:31;;;;;;;13.73;7.80;;;10.40;99.90;;;;;;5035984;28;20207;-77
2023/04/21 00:13:57;;;;;;;13.83;7.77;;;10.40;99.90;;;;;;5052125;28;20587;-77
2023/04/21 00:16:24;;;;;;;12.97;7.43;;;10.40;99.90;;;;;;5035397;28;20230;-78
2023/04/21 00:18:51;;;;;;;13.13;7.87;;;10.40;99.90;;;;;;5035971;28;20194;-77
2023/04/21 00:21:18;;;;;;;15.67;8.30;;;10.40;99.90;;;;;;5053621;28;20198;-77
2023/04/21 00:23:46;;;;;;;12.80;7.63;;;10.30;99.90;;;;;;5035590;28;20516;-76
2023/04/21 00:26:13;;;;;;;12.03;7.53;;;10.30;99.90;;;;;;5036074;28;20214;-77
2023/04/21 00:28:39;;;;;;;10.77;7.47;;;10.30;99.90;;;;;;5035480;28;20199;-77
2023/04/21 00:31:06;;;;;;;12.53;7.40;;;10.30;99.90;;;;;;5052988;28;20183;-77
2023/04/21 00:33:33;;;;;;;13.83;7.00;;;10.30;99.90;;;;;;5035624;28;20203;-78
2023/04/21 00:36:00;;;;;;;13.23;7.57;;;10.30;99.90;;;;;;5035144;28;20230;-78
2023/04/21 00:38:27;;;;;;;13.00;7.30;;;10.30;99.90;;;;;;5035407;28;20230;-77
2023/04/21 00:40:54;;;;;;;13.10;7.60;;;10.20;99.90;;;;;;5035483;28;20214;-76
2023/04/21 00:43:21;;;;;;;22.53;9.10;;;10.20;99.90;;;;;;5053051;28;20194;-77
2023/04/21 00:45:47;;;;;;;11.53;7.37;;;10.20;99.90;;;;;;5035095;28;20202;-77
2023/04/21 00:48:15;;;;;;;12.57;7.20;;;10.10;99.90;;;;;;5052047;28;20199;-78
2023/04/21 00:50:43;;;;;;;10.33;6.97;;;10.10;99.90;;;;;;5036587;28;20553;-76
2023/04/21 00:53:11;;;;;;;10.63;7.20;;;10.10;99.90;;;;;;5036351;28;20199;-76
2023/04/21 00:55:38;;;;;;;13.13;7.33;;;10.10;99.90;;;;;;5053490;28;20234;-78
2023/04/21 00:58:06;;;;;;;14.77;7.57;;;10.10;99.90;;;;;;5054409;28;20187;-79
2023/04/21 01:00:33;;;;;;;26.17;9.40;;;10.00;99.90;;;;;;5036502;28;20209;-77
2023/04/21 01:03:00;;;;;;;13.97;7.63;;;10.00;99.90;;;;;;5051902;28;20195;-77
2023/04/21 01:05:27;;;;;;;10.80;6.80;;;10.00;99.90;;;;;;5053332;28;20191;-77
2023/04/21 01:07:54;;;;;;;14.37;7.27;;;10.00;99.90;;;;;;5035620;28;20296;-78
2023/04/21 01:10:21;;;;;;;13.80;7.50;;;10.00;99.90;;;;;;5053698;28;20202;-78
2023/04/21 01:12:48;;;;;;;11.80;7.17;;;10.00;99.90;;;;;;5035646;28;20233;-78
2023/04/21 01:15:16;;;;;;;11.33;7.47;;;9.90;99.90;;;;;;5034644;28;20219;-78
2023/04/21 01:17:44;;;;;;;12.93;7.30;;;9.80;99.90;;;;;;5051314;28;20198;-78
2023/04/21 01:20:13;;;;;;;12.13;7.27;;;9.80;99.90;;;;;;5053159;28;20195;-78
2023/04/21 01:22:41;;;;;;;12.00;6.93;;;9.70;99.90;;;;;;5034613;28;20289;-77
2023/04/21 01:25:08;;;;;;;13.97;7.90;;;9.70;99.90;;;;;;5051479;28;20605;-77
2023/04/21 01:27:35;;;;;;;14.07;6.73;;;9.70;99.90;;;;;;5052382;28;20597;-78
2023/04/21 01:30:04;;;;;;;9.93;6.93;;;9.70;99.90;;;;;;5034239;28;20199;-78
2023/04/21 01:32:30;;;;;;;15.83;8.20;;;9.70;99.90;;;;;;5034571;28;20215;-78
2023/04/21 01:34:59;;;;;;;11.37;7.03;;;9.60;99.90;;;;;;5034098;28;20226;-77
2023/04/21 01:37:29;;;;;;;12.07;6.83;;;9.60;99.90;;;;;;5051932;28;20225;-77
2023/04/21 01:39:59;;;;;;;10.53;7.07;;;9.60;99.90;;;;;;5052227;28;20191;-78
2023/04/21 01:42:28;;;;;;;12.13;7.67;;;9.60;99.90;;;;;;5034337;28;20202;-77
2023/04/21 01:44:55;;;;;;;10.03;6.60;;;9.50;99.90;;;;;;5034413;28;20191;-78
2023/04/21 01:47:23;;;;;;;10.57;6.80;;;9.50;99.90;;;;;;5051993;28;20190;-78
2023/04/21 01:49:51;;;;;;;10.87;6.83;;;9.50;99.90;;;;;;5034485;28;20210;-78
2023/04/21 01:52:18;;;;;;;13.13;7.10;;;9.50;99.90;;;;;;5050894;28;20562;-77
2023/04/21 01:54:45;;;;;;;11.33;7.63;;;9.40;99.90;;;;;;5050711;28;20222;-78
2023/04/21 01:57:12;;;;;;;11.30;7.13;;;9.50;99.90;;;;;;5033987;28;20550;-78
2023/04/21 01:59:39;;;;;;;12.77;6.90;;;9.40;99.90;;;;;;5034043;28;20206;-78
2023/04/21 02:02:06;;;;;;;11.57;7.20;;;9.40;99.90;;;;;;5052122;28;20190;-78
2023/04/21 02:04:33;;;;;;;14.17;7.53;;;9.30;99.90;;;;;;5034074;28;20195;-78
2023/04/21 02:07:00;;;;;;;12.63;7.10;;;9.40;99.90;;;;;;5033758;28;20256;-79
2023/04/21 02:09:27;;;;;;;11.43;6.63;;;9.40;99.90;;;;;;5052037;28;20198;-80
2023/04/21 02:11:56;;;;;;;10.83;6.87;;;9.30;99.90;;;;;;5034049;28;20653;-78
2023/04/21 02:14:24;;;;;;;10.97;7.10;;;9.40;99.90;;;;;;5036165;28;20199;-78
2023/04/21 02:16:51;;;;;;;9.90;6.97;;;9.30;99.90;;;;;;5054415;28;20187;-78
2023/04/21 02:19:18;;;;;;;20.73;7.57;;;9.20;99.90;;;;;;5037927;28;20206;-78
2023/04/21 02:21:46;;;;;;;16.40;7.60;;;9.20;99.90;;;;;;5056083;28;20649;-79
2023/04/21 02:24:13;;;;;;;12.17;6.87;;;9.20;99.90;;;;;;5037802;28;20231;-78
2023/04/21 02:26:41;;;;;;;13.13;6.77;;;9.10;99.90;;;;;;5037589;28;20226;-78
2023/04/21 02:29:08;;;;;;;13.70;7.30;;;9.10;99.90;;;;;;5037887;28;20205;-79
2023/04/21 02:31:34;;;;;;;9.27;6.43;;;9.00;99.90;;;;;;5054422;28;20222;-78
2023/04/21 02:34:20;;;;;;;12.47;6.70;;;9.10;99.90;;;;;;5055434;28;20202;-78
2023/04/21 02:36:47;;;;;;;11.47;6.73;;;9.00;99.90;;;;;;5054068;28;20309;-78
2023/04/21 02:39:14;;;;;;;9.87;6.63;;;9.00;99.90;;;;;;5037139;28;20227;-78
2023/04/21 02:41:42;;;;;;;13.67;6.90;;;9.00;99.90;;;;;;5037612;28;20203;-78
2023/04/21 02:44:09;;;;;;;12.80;6.60;;;9.00;99.90;;;;;;5037397;28;20286;-78
2023/04/21 02:46:39;;;;;;;11.93;6.80;;;8.90;99.90;;;;;;5037391;28;20572;-77
2023/04/21 02:49:07;;;;;;;9.97;6.90;;;8.80;99.90;;;;;;5054345;28;20199;-78
2023/04/21 02:51:34;;;;;;;11.87;6.80;;;8.80;99.90;;;;;;5037306;28;20191;-78
2023/04/21 02:54:01;;;;;;;14.80;6.67;;;8.80;99.90;;;;;;5053834;28;20202;-78
2023/04/21 02:56:27;;;;;;;11.03;6.80;;;8.80;99.90;;;;;;5053694;28;20219;-77
2023/04/21 02:58:54;;;;;;;10.17;6.67;;;8.80;99.90;;;;;;5053727;28;20199;-78
2023/04/21 03:01:21;;;;;;;13.23;6.60;;;8.80;99.90;;;;;;5055273;28;20199;-78
2023/04/21 03:03:48;;;;;;;9.83;6.50;;;8.80;99.90;;;;;;5037044;28;20681;-78
2023/04/21 03:06:15;;;;;;;11.33;6.63;;;8.80;99.90;;;;;;5053797;28;20636;-77
2023/04/21 03:08:42;;;;;;;11.30;6.73;;;8.80;99.90;;;;;;5053503;28;20199;-77
2023/04/21 03:11:09;;;;;;;11.40;6.90;;;8.70;99.90;;;;;;5037284;28;20202;-77
2023/04/21 03:13:35;;;;;;;10.73;6.93;;;8.70;99.90;;;;;;5055028;28;20198;-78
2023/04/21 03:16:02;;;;;;;10.60;6.40;;;8.70;99.90;;;;;;5037022;28;20223;-77
2023/04/21 03:18:29;;;;;;;9.27;6.43;;;8.70;99.90;;;;;;5036939;28;20623;-77
2023/04/21 03:21:00;;;;;;;10.53;7.70;;;8.70;99.90;;;;;;5054576;28;20290;-77
2023/04/21 03:23:27;;;;;;;13.27;6.97;;;8.60;99.90;;;;;;5053482;28;20290;-77
2023/04/21 03:25:54;;;;;;;11.63;7.23;;;8.60;99.90;;;;;;5052720;28;20525;-77
2023/04/21 03:28:20;;;;;;;12.67;6.87;;;8.60;99.90;;;;;;5036697;28;20187;-78
2023/04/21 03:30:47;;;;;;;13.20;6.90;;;8.60;99.90;;;;;;5053420;28;20206;-77
2023/04/21 03:33:15;;;;;;;11.33;6.53;;;8.60;99.90;;;;;;5053414;28;20684;-76
2023/04/21 03:35:41;;;;;;;14.80;6.90;;;8.60;99.90;;;;;;5036251;28;20585;-76
2023/04/21 03:38:08;;;;;;;11.40;6.90;;;8.60;99.90;;;;;;5036301;28;20232;-78
2023/04/21 03:40:35;;;;;;;9.97;6.77;;;8.50;99.90;;;;;;5036501;28;20286;-78
2023/04/21 03:43:02;;;;;;;11.63;6.93;;;8.50;99.90;;;;;;5053237;28;20209;-78
2023/04/21 03:45:29;;;;;;;12.27;6.83;;;8.50;99.90;;;;;;5052815;28;20205;-78
2023/04/21 03:47:56;;;;;;;12.17;7.00;;;8.50;99.90;;;;;;5054078;28;20183;-77
2023/04/21 03:50:23;;;;;;;11.97;7.07;;;8.50;99.90;;;;;;5052917;28;20862;-77
2023/04/21 03:52:50;;;;;;;10.97;6.80;;;8.50;99.90;;;;;;5036043;28;20191;-77
2023/04/21 03:55:16;;;;;;;10.57;6.93;;;8.50;99.90;;;;;;5036401;28;20529;-77
2023/04/21 03:57:43;;;;;;;15.67;7.47;;;8.50;99.90;;;;;;5035916;28;20644;-78
2023/04/21 04:00:11;;;;;;;11.70;6.90;;;8.40;99.90;;;;;;5052658;28;20195;-77
2023/04/21 04:02:38;;;;;;;11.03;6.83;;;8.50;99.90;;;;;;5036087;28;20213;-77
2023/04/21 04:05:06;;;;;;;12.93;7.20;;;8.50;99.90;;;;;;5053640;28;20641;-78
2023/04/21 04:07:33;;;;;;;12.00;6.73;;;8.50;99.90;;;;;;5052372;28;20270;-78
2023/04/21 04:10:00;;;;;;;12.07;6.60;;;8.50;99.90;;;;;;5036076;28;20191;-77
2023/04/21 04:12:27;;;;;;;12.80;7.03;;;8.50;99.90;;;;;;5053701;28;20187;-76
2023/04/21 04:14:54;;;;;;;10.77;6.63;;;8.60;99.90;;;;;;5052375;28;20270;-76
2023/04/21 04:17:21;;;;;;;9.47;6.67;;;8.60;99.90;;;;;;5035877;28;20256;-77
2023/04/21 04:19:48;;;;;;;10.17;6.83;;;8.50;99.90;;;;;;5052369;28;20669;-77
2023/04/21 04:22:15;;;;;;;10.77;6.20;;;8.60;99.90;;;;;;5052103;28;20183;-77
2023/04/21 04:24:43;;;;;;;12.03;6.90;;;8.60;99.90;;;;;;5035492;28;20640;-77
2023/04/21 04:27:12;;;;;;;11.10;6.60;;;8.60;99.90;;;;;;5035568;28;20289;-77
2023/04/21 04:29:40;;;;;;;12.67;6.70;;;8.60;99.90;;;;;;5035368;28;20520;-77
2023/04/21 04:32:09;;;;;;;9.40;6.30;;;8.60;99.90;;;;;;5053239;28;20211;-77
2023/04/21 04:34:38;;;;;;;10.57;6.47;;;8.70;99.90;;;;;;5053203;28;20205;-77
2023/04/21 04:37:05;;;;;;;12.50;6.43;;;8.70;99.90;;;;;;5052127;28;20218;-77
2023/04/21 04:39:32;;;;;;;10.33;6.20;;;8.70;99.90;;;;;;5035584;28;20191;-77
2023/04/21 04:42:00;;;;;;;9.07;6.27;;;8.80;99.90;;;;;;5035333;28;20206;-77
2023/04/21 04:44:27;;;;;;;13.80;6.43;;;8.80;99.90;;;;;;5052958;28;20194;-77
2023/04/21 04:46:55;;;;;;;10.87;6.30;;;8.90;99.90;;;;;;5051737;28;20191;-78
2023/04/21 04:49:22;;;;;;;9.53;6.27;;;9.00;99.90;;;;;;5053176;28;20191;-77
2023/04/21 04:51:50;;;;;;;10.00;6.30;;;9.10;99.90;;;;;;5034964;28;20183;-76
2023/04/21 04:54:16;;;;;;;11.33;6.13;;;9.10;99.90;;;;;;5034955;28;20305;-77
2023/04/21 04:56:44;;;;;;;9.70;5.90;;;9.00;99.90;;;;;;5052635;28;20250;-75
2023/04/21 04:59:11;;;;;;;9.53;6.37;;;9.00;99.90;;;;;;5052771;28;20557;-76
2023/04/21 05:01:39;;;;;;;10.13;6.30;;;9.00;99.90;;;;;;5018564;28;20296;-76
2023/04/21 05:04:06;;;;;;;11.10;6.50;;;9.10;99.90;;;;;;5052513;28;20595;-75
2023/04/21 05:06:34;;;;;;;13.43;6.53;;;9.10;99.90;;;;;;5034628;28;20230;-75
2023/04/21 05:09:01;;;;;;;11.97;6.17;;;9.10;99.90;;;;;;5051505;28;20198;-76
2023/04/21 05:11:28;;;;;;;10.47;6.07;;;9.10;99.90;;;;;;5051187;28;20323;-79
2023/04/21 05:13:55;;;;;;;10.10;5.93;;;9.20;99.90;;;;;;5034488;28;20209;-80
2023/04/21 05:16:22;;;;;;;11.03;6.20;;;9.20;99.90;;;;;;5034452;28;20261;-77
2023/04/21 05:18:52;;;;;;;10.10;6.47;;;9.40;99.90;;;;;;5034471;28;20610;-79
2023/04/21 05:21:27;;;;;;;13.87;5.87;;;9.40;99.90;;;;;;5034651;28;20203;-77
2023/04/21 05:23:58;;;;;;;10.87;5.80;;;9.50;99.90;;;;;;5051530;28;20206;-79
2023/04/21 05:26:26;;;;;;;12.00;5.63;;;9.50;99.90;;;;;;5049669;28;20202;-76
2023/04/21 05:28:57;;;;;;;14.07;6.00;;;9.60;99.90;;;;;;5018079;28;20199;-78
2023/04/21 05:31:24;;;;;;;10.73;5.50;;;9.70;99.90;;;;;;5051384;28;20226;-79
2023/04/21 05:33:52;;;;;;;12.17;6.67;;;9.80;99.90;;;;;;5051213;28;20302;-79
2023/04/21 05:36:19;;;;;;;9.50;5.43;;;9.80;99.90;;;;;;5050915;28;20230;-78
2023/04/21 05:38:46;;;;;;;11.93;5.70;;;9.90;99.90;;;;;;5052321;28;20218;-77
2023/04/21 05:41:13;;;;;;;8.87;5.33;;;9.90;99.90;;;;;;5034436;28;20205;-77
2023/04/21 05:43:40;;;;;;;10.43;5.83;;;10.00;99.90;;;;;;5051057;28;20197;-78
2023/04/21 05:46:10;;;;;;;8.93;5.47;;;10.10;99.90;;;;;;5050714;28;20213;-77
2023/04/21 05:48:37;;;;;;;12.67;5.73;;;10.20;99.90;;;;;;5052060;28;20205;-78
2023/04/21 05:51:14;;;;;;;9.20;5.40;;;10.20;99.90;;;;;;5034169;28;20187;-78
2023/04/21 05:53:42;;;;;;;9.23;5.57;;;10.20;99.90;;;;;;5034360;28;20201;-78
2023/04/21 05:56:12;;;;;;;9.43;5.13;;;10.30;99.90;;;;;;5033968;28;20226;-78
2023/04/21 05:58:42;;;;;;;11.37;5.50;;;10.40;99.90;;;;;;5033928;28;20206;-78
2023/04/21 06:01:10;;;;;;;13.00;5.73;;;10.50;99.90;;;;;;5034034;28;20199;-77
2023/04/21 06:03:36;;;;;;;8.00;5.20;;;10.60;99.90;;;;;;5050740;28;20202;-77
2023/04/21 06:06:06;;;;;;;10.00;5.60;;;10.70;99.90;;;;;;5050551;28;20195;-79
2023/04/21 06:08:33;;;;;;;7.07;4.87;;;10.70;99.90;;;;;;5034041;28;20212;-79
2023/04/21 06:11:00;;;;;;;8.13;5.00;;;10.80;99.90;;;;;;5034191;28;20286;-78
2023/04/21 06:13:27;;;;;;;8.83;5.10;;;10.90;99.90;;;;;;5052348;28;20197;-78
2023/04/21 06:15:54;;;;;;;11.23;5.07;;;11.00;99.90;;;;;;5050477;28;20272;-78
2023/04/21 06:18:21;;;;;;;8.00;5.20;;;11.10;99.90;;;;;;5051806;28;20599;-78
2023/04/21 06:20:52;;;;;;;10.83;5.23;;;11.20;99.90;;;;;;5052429;28;20942;-78
2023/04/21 06:23:20;;;;;;;10.37;5.10;;;11.20;99.90;;;;;;5050890;28;20206;-78
2023/04/21 06:26:05;;;;;;;11.17;4.90;;;11.30;99.90;;;;;;5034106;28;20253;-77
2023/04/21 06:28:33;;;;;;;10.67;5.20;;;11.40;99.90;;;;;;5050376;28;20198;-78
2023/04/21 06:31:01;;;;;;;10.07;5.20;;;11.50;99.90;;;;;;5033777;28;20192;-78
2023/04/21 06:33:29;;;;;;;8.50;4.50;;;11.60;99.90;;;;;;5051675;28;20662;-77
2023/04/21 06:35:56;;;;;;;9.57;5.07;;;11.70;99.90;;;;;;5051878;28;20284;-78
2023/04/21 06:38:23;;;;;;;8.97;4.43;;;11.90;99.90;;;;;;5033639;28;20683;-78
2023/04/21 06:40:50;;;;;;;9.13;5.20;;;12.00;99.90;;;;;;5050372;28;20203;-79
2023/04/21 06:43:18;;;;;;;10.87;5.73;;;12.00;99.90;;;;;;5051483;28;20195;-78
2023/04/21 06:45:45;;;;;;;12.03;6.10;;;12.10;99.90;;;;;;5033690;28;20194;-78
2023/04/21 06:48:12;;;;;;;9.37;4.40;;;12.10;99.90;;;;;;5051501;28;20206;-77
2023/04/21 06:50:38;;;;;;;6.93;4.40;;;12.30;99.90;;;;;;5033644;28;20648;-77
2023/04/21 06:53:11;;;;;;;8.43;4.43;;;12.30;99.90;;;;;;5051634;28;20603;-77
2023/04/21 06:55:39;;;;;;;9.20;4.50;;;12.40;99.90;;;;;;5033376;28;20202;-78
2023/04/21 06:58:06;;;;;;;9.73;4.10;;;12.50;99.90;;;;;;5051636;28;20210;-76
2023/04/21 07:00:33;;;;;;;10.27;4.13;;;12.60;99.90;;;;;;5034758;28;20647;-77
2023/04/21 07:02:59;;;;;;;7.57;4.00;;;12.70;99.90;;;;;;5055319;28;20211;-78
2023/04/21 07:05:28;;;;;;;10.77;3.97;;;12.80;99.90;;;;;;5037071;28;20202;-78
2023/04/21 07:07:58;;;;;;;6.93;3.93;;;12.90;99.90;;;;;;5055459;28;20192;-78
2023/04/21 07:10:26;;;;;;;6.67;3.80;;;12.90;99.90;;;;;;5036760;28;20191;-77
2023/04/21 07:12:56;;;;;;;6.93;3.67;;;13.00;99.90;;;;;;5037109;28;20773;-78
2023/04/21 07:15:23;;;;;;;6.37;3.90;;;13.10;99.90;;;;;;5053806;28;20636;-78
2023/04/21 07:17:50;;;;;;;7.43;3.90;;;13.40;99.90;;;;;;5053133;28;20219;-78
2023/04/21 07:20:18;;;;;;;7.17;3.57;;;13.40;99.90;;;;;;5053681;28;20218;-77
2023/04/21 07:22:45;;;;;;;5.90;4.00;;;13.50;99.90;;;;;;5054756;28;20246;-78
2023/04/21 07:25:13;;;;;;;7.10;3.90;;;13.70;99.90;;;;;;5036554;28;20206;-78
2023/04/21 07:27:40;;;;;;;8.80;3.60;;;13.70;99.90;;;;;;5053617;28;20230;-77
2023/04/21 07:30:08;;;;;;;9.70;3.80;;;13.90;99.90;;;;;;5036916;28;20221;-78
2023/04/21 07:32:37;;;;;;;7.50;3.50;;;13.90;99.90;;;;;;5036495;28;20230;-78
2023/04/21 07:35:06;;;;;;;5.97;3.60;;;14.20;99.90;;;;;;5036500;28;20278;-77
2023/04/21 07:37:33;;;;;;;8.97;3.90;;;14.20;99.90;;;;;;5052902;28;20242;-77
2023/04/21 07:40:00;;;;;;;8.20;3.63;;;14.30;99.90;;;;;;5054763;28;20202;-79
2023/04/21 07:42:27;;;;;;;5.40;3.20;;;14.40;99.90;;;;;;5054202;28;20202;-78
2023/04/21 07:44:55;;;;;;;5.40;3.50;;;14.50;99.90;;;;;;5036493;28;20531;-78
2023/04/21 07:47:24;;;;;;;6.80;3.23;;;14.50;99.90;;;;;;5036301;28;20199;-78
2023/04/21 07:49:51;;;;;;;7.33;3.03;;;14.60;97.50;;;;;;5036636;28;20191;-78
2023/04/21 07:52:18;;;;;;;4.23;3.00;;;14.70;95.30;;;;;;5036145;28;20206;-79
2023/04/21 07:54:46;;;;;;;6.70;3.23;;;14.70;95.80;;;;;;5054123;28;20632;-79
2023/04/21 07:57:13;;;;;;;5.93;3.10;;;14.90;97.00;;;;;;5053983;28;20219;-79
2023/04/21 07:59:40;;;;;;;6.30;3.27;;;15.00;95.50;;;;;;5019801;28;20195;-78
2023/04/21 08:02:07;;;;;;;4.23;3.20;;;15.10;95.60;;;;;;5052853;28;20206;-79
2023/04/21 08:04:34;;;;;;;5.60;2.87;;;15.60;92.70;;;;;;5036183;28;20195;-78
2023/04/21 08:07:01;;;;;;;5.07;3.20;;;16.80;86.30;;;;;;5035824;28;20700;-78
2023/04/21 08:09:28;;;;;;;3.70;2.90;;;18.10;82.20;;;;;;5036111;28;20226;-79
2023/04/21 08:11:56;;;;;;;4.57;2.90;;;19.10;76.60;;;;;;5053645;28;20533;-78
2023/04/21 08:14:25;;;;;;;4.67;2.60;;;19.80;66.80;;;;;;5035697;28;20195;-80
2023/04/21 08:16:55;;;;;;;6.00;3.00;;;20.20;62.40;;;;;;5053530;28;20682;-77
2023/04/21 08:22:13;;;;;;;5.73;3.23;;;21.10;61.90;;;;;;5013599;28;20215;-79
2023/04/21 08:24:40;;;;;;;4.87;3.17;;;21.50;59.50;;;;;;5015854;28;20202;-79
2023/04/21 08:27:07;;;;;;;5.80;3.13;;;21.60;57.40;;;;;;5033440;28;20194;-78
2023/04/21 08:29:34;;;;;;;6.85;3.10;;;21.70;55.70;;;;;;5033533;28;20186;-78
2023/04/21 08:32:01;;;;;;;4.03;3.05;;;21.80;54.60;;;;;;5033767;28;20212;-80
2023/04/21 08:34:28;;;;;;;7.40;3.47;;;21.90;53.90;;;;;;5015636;28;20207;-77
2023/04/21 08:36:55;;;;;;;5.18;3.20;;;22.10;54.20;;;;;;5015938;28;20211;-77
2023/04/21 08:39:23;;;;;;;8.95;3.45;;;22.10;54.30;;;;;;5016148;28;20307;-78
2023/04/21 08:41:51;;;;;;;4.43;3.00;;;22.20;53.20;;;;;;4999596;28;20191;-78
2023/04/21 08:44:27;;;;;;;5.13;3.30;;;22.20;51.90;;;;;;5015388;28;20210;-79
2023/04/21 08:47:32;;;;;;;6.00;3.05;;;22.50;52.70;;;;;;5010694;28;20211;-75
2023/04/21 08:49:59;;;;;;;5.93;3.17;;;22.60;53.00;;;;;;5015587;28;20191;-75
2023/04/21 08:52:26;;;;;;;7.07;3.08;;;22.40;51.70;;;;;;5030026;28;20188;-75
2023/04/21 08:54:54;;;;;;;5.97;2.88;;;22.40;51.90;;;;;;5004223;28;20201;-78
2023/04/21 08:57:21;;;;;;;5.90;3.00;;;22.40;50.70;;;;;;5013099;28;20212;-76
2023/04/21 08:59:48;;;;;;;8.03;3.10;;;22.00;50.80;;;;;;4995953;28;20200;-75
2023/04/21 09:02:17;;;;;;;4.13;2.97;;;22.00;52.90;;;;;;4996623;28;20191;-77
2023/04/21 09:04:46;;;;;;;3.97;2.83;;;21.90;50.50;;;;;;5014816;28;20203;-75
2023/04/21 09:07:35;;;;;;;4.67;2.93;;;21.90;50.10;;;;;;5032514;28;20230;-76
2023/04/21 09:10:04;;;;;;;4.80;2.90;;;22.30;50.20;;;;;;5019961;28;20185;-77
2023/04/21 09:12:39;;;;;;;4.05;3.20;;;22.50;50.50;;;;;;4979569;28;20223;-76
2023/04/21 09:15:09;;;;;;;5.07;2.92;;;22.50;49.40;;;;;;5012793;28;20223;-75
2023/04/21 09:17:37;;;;;;;4.65;2.95;;;22.50;51.50;;;;;;4995004;28;20219;-77
2023/04/21 09:20:19;;;;;;;5.32;3.05;;;22.80;50.40;;;;;;5005693;28;20223;-77
2023/04/21 09:22:48;;;;;;;6.03;3.00;;;22.80;48.60;;;;;;5051786;28;20218;-76
2023/04/21 09:25:18;;;;;;;3.92;2.90;;;22.70;49.40;;;;;;5034267;28;20226;-78
2023/04/21 09:27:45;;;;;;;5.28;2.97;;;22.80;50.00;;;;;;5051012;28;20183;-77
2023/04/21 09:30:17;;;;;;;3.97;2.90;;;23.00;49.70;;;;;;5072611;28;20224;-76
2023/04/21 09:32:43;;;;;;;4.72;3.25;;;23.10;49.90;;;;;;5054441;28;20224;-76
2023/04/21 09:35:10;;;;;;;4.75;3.15;;;22.70;48.50;;;;;;5054263;28;20186;-77
2023/04/21 09:37:41;;;;;;;4.68;2.80;;;23.00;48.40;;;;;;5072113;28;20206;-78
2023/04/21 09:40:13;;;;;;;5.30;3.28;;;23.30;49.10;;;;;;5054340;28;20209;-76
2023/04/21 09:42:42;;;;;;;5.38;2.80;;;23.50;48.00;;;;;;5057214;28;20194;-75
2023/04/21 09:45:12;;;;;;;4.93;3.17;;;23.50;48.70;;;;;;5055565;28;20658;-78
2023/04/21 09:47:45;;;;;;;5.45;3.00;;;23.50;48.30;;;;;;5054128;28;20190;-78
2023/04/21 09:50:12;;;;;;;4.97;2.75;;;23.70;48.40;;;;;;5053580;28;20247;-76
2023/04/21 09:52:42;;;;;;;4.05;2.92;;;23.70;48.10;;;;;;5054130;28;20312;-75
2023/04/21 09:55:12;;;;;;;4.75;2.92;;;23.60;47.20;;;;;;5054145;28;20183;-75
2023/04/21 09:57:43;;;;;;;4.32;2.90;;;23.70;47.50;;;;;;5054258;28;20217;-73
2023/04/21 10:00:12;;;;;;;4.18;2.90;;;23.80;46.80;;;;;;5053982;28;20197;-73
2023/04/21 10:02:49;;;;;;;4.43;3.00;;;24.00;47.50;;;;;;5053973;28;20198;-78
2023/04/21 10:05:17;;;;;;;4.68;2.90;;;24.20;49.40;;;;;;5054001;28;20190;-76
2023/04/21 10:07:45;;;;;;;4.28;3.22;;;24.50;48.20;;;;;;5053895;28;20212;-76
2023/04/21 10:10:26;;;;;;;4.00;3.10;;;24.50;44.90;;;;;;5053348;28;20255;-77
2023/04/21 10:12:54;;;;;;;4.78;3.40;;;23.90;46.20;;;;;;5053995;28;20212;-74
2023/04/21 10:15:34;;;;;;;4.85;3.10;;;23.90;47.20;;;;;;5053772;28;20261;-74
2023/04/21 10:18:21;;;;;;;4.82;3.10;;;24.30;46.30;;;;;;5054015;28;20605;-75
2023/04/21 10:21:02;;;;;;;3.75;3.05;;;24.60;45.90;;;;;;5053618;28;20581;-75
2023/04/21 10:23:35;;;;;;;3.65;2.80;;;24.80;45.20;;;;;;5053912;28;20293;-75
2023/04/21 10:26:24;;;;;;;4.13;3.05;;;24.80;44.00;;;;;;5071574;28;20182;-76
2023/04/21 10:29:02;;;;;;;5.22;3.00;;;25.00;47.70;;;;;;5053692;28;20190;-75
2023/04/21 10:31:30;;;;;;;3.85;3.08;;;25.20;46.50;;;;;;5053401;28;20281;-76
2023/04/21 10:34:07;;;;;;;3.78;2.78;;;25.10;45.40;;;;;;5053453;28;20217;-79
2023/04/21 10:36:41;;;;;;;7.95;3.33;;;25.50;45.40;;;;;;5057698;28;20553;-79
2023/04/21 10:39:11;;;;;;;9.23;3.35;;;25.20;43.80;;;;;;5057428;28;20199;-75
2023/04/21 10:41:38;;;;;;;6.80;2.88;;;25.60;44.80;;;;;;5075565;28;20214;-77
2023/04/21 10:44:14;;;;;;;3.33;2.55;;;25.80;43.50;;;;;;5057646;28;20198;-80
2023/04/21 10:46:48;;;;;;;8.80;2.80;;;25.80;44.30;;;;;;5057143;28;20205;-79
2023/04/21 10:49:28;;;;;;;5.47;3.00;;;25.90;42.30;;;;;;5057507;28;20190;-79
2023/04/21 10:51:58;;;;;;;3.63;2.72;;;25.90;42.70;;;;;;5075575;28;20218;-79
2023/04/21 10:54:40;;;;;;;5.07;3.05;;;26.00;42.60;;;;;;5075127;28;20194;-80
2023/04/21 10:57:10;;;;;;;6.50;2.90;;;25.90;44.10;;;;;;5057046;28;20311;-78
2023/04/21 10:59:38;;;;;;;4.55;3.00;;;25.70;42.10;;;;;;5056556;28;21025;-79
2023/04/21 11:02:06;;;;;;;8.32;3.53;;;26.00;43.90;;;;;;5037286;28;20562;-79
2023/04/21 11:04:35;;;;;;;4.38;2.90;;;26.20;42.70;;;;;;5037034;28;20253;-78
2023/04/21 11:07:07;;;;;;;8.45;3.00;;;26.30;40.80;;;;;;5036889;28;20202;-77
2023/04/21 11:09:34;;;;;;;4.75;2.75;;;26.60;42.60;;;;;;5054822;28;20199;-77
2023/04/21 11:12:07;;;;;;;4.05;2.78;;;26.70;42.00;;;;;;5036611;28;20662;-77
2023/04/21 11:14:36;;;;;;;5.85;2.78;;;26.60;40.70;;;;;;5036902;28;20218;-77
2023/04/21 11:17:09;;;;;;;6.65;3.03;;;26.90;42.60;;;;;;5037018;28;20219;-77
2023/04/21 11:19:36;;;;;;;5.22;2.80;;;27.00;41.80;;;;;;5054568;28;20191;-77
2023/04/21 11:22:04;;;;;;;4.00;2.72;;;27.20;41.80;;;;;;5055567;28;20272;-79
2023/04/21 11:24:31;;;;;;;4.93;2.55;;;27.30;40.20;;;;;;5053845;28;20197;-80
2023/04/21 11:27:01;;;;;;;5.32;2.83;;;27.30;39.20;;;;;;5037819;28;20660;-79
2023/04/21 11:35:41;;;;;;;4.90;2.85;;;28.20;41.80;;;;;;5177766;22;20314;-81
2023/04/21 11:46:41;;;;;;;;;;;;;;;;;;;;;
2023/04/21 11:55:36;;;;;;;4.63;2.80;;;29.70;37.30;;;;;;5265955;23;20227;-78
2023/04/21 11:58:02;;;;;;;4.78;2.90;;;29.90;37.20;;;;;;5036139;28;20647;-80
2023/04/21 12:00:31;;;;;;;3.75;2.60;;;29.10;37.10;;;;;;5052797;28;20675;-73
2023/04/21 12:02:58;;;;;;;9.93;3.10;;;29.40;37.80;;;;;;5036377;28;20715;-76
2023/04/21 12:05:34;;;;;;;5.15;2.80;;;29.40;39.80;;;;;;5054521;28;20694;-86
2023/04/21 12:08:05;;;;;;;5.95;3.20;;;29.40;38.10;;;;;;5055831;28;20261;-72
2023/04/21 12:10:32;;;;;;;4.70;3.10;;;29.70;38.60;;;;;;5037542;28;20587;-69
2023/04/21 12:12:59;;;;;;;4.63;3.20;;;30.10;41.10;;;;;;5052834;28;20202;-82
2023/04/21 12:15:29;;;;;;;5.30;2.80;;;30.20;38.10;;;;;;5053821;28;20202;-77
2023/04/21 12:17:56;;;;;;;4.30;2.75;;;30.20;38.40;;;;;;5053761;28;20226;-81
2023/04/21 12:20:27;;;;;;;4.95;2.75;;;29.90;37.90;;;;;;5053746;28;20249;-83
2023/04/21 12:22:55;;;;;;;7.05;2.70;;;29.60;38.40;;;;;;5053727;28;20199;-83
2023/04/21 12:25:23;;;;;;;4.88;2.75;;;29.60;38.50;;;;;;5052632;28;20187;-75
2023/04/21 12:27:53;;;;;;;4.55;2.53;;;29.70;39.00;;;;;;5053890;28;20213;-75
2023/04/21 12:30:21;;;;;;;4.60;2.58;;;29.30;38.70;;;;;;5054583;28;20198;-77
2023/04/21 12:32:50;;;;;;;4.13;2.65;;;29.30;38.60;;;;;;5051860;28;20897;-77
2023/04/21 12:35:18;;;;;;;4.28;2.53;;;28.50;36.20;;;;;;5051801;28;20675;-77
2023/04/21 12:37:45;;;;;;;7.85;2.58;;;28.30;38.60;;;;;;5028277;28;20218;-75
2023/04/21 12:40:12;;;;;;;4.82;2.75;;;27.80;39.40;;;;;;5020404;28;20202;-74
2023/04/21 12:42:39;;;;;;;4.80;3.45;;;27.80;37.60;;;;;;5035103;28;20293;-74
2023/04/21 12:45:06;;;;;;;4.70;3.00;;;27.60;39.00;;;;;;5043053;28;20202;-76
2023/04/21 12:47:59;;;;;;;3.67;2.92;;;27.90;40.40;;;;;;5014893;28;20214;-75
2023/04/21 12:50:26;;;;;;;5.60;2.90;;;28.10;39.00;;;;;;5015193;28;20234;-77
2023/04/21 12:52:54;;;;;;;3.88;2.42;;;28.40;38.80;;;;;;5018806;28;20182;-76
2023/04/21 12:55:26;;;;;;;4.85;2.47;;;28.60;38.40;;;;;;5034529;28;20230;-76
2023/04/21 12:57:53;;;;;;;4.38;2.80;;;28.50;37.50;;;;;;5017733;28;20590;-78
2023/04/21 13:00:20;;;;;;;2.65;2.33;;;28.70;37.40;;;;;;5035116;28;20205;-82
2023/04/21 13:02:50;;;;;;;5.10;2.90;;;29.00;36.90;;;;;;5019145;28;20207;-79
2023/04/21 13:05:17;;;;;;;3.42;2.50;;;29.30;38.20;;;;;;5034778;28;20206;-82
2023/04/21 13:07:44;;;;;;;4.43;2.70;;;29.10;36.40;;;;;;5034690;28;20199;-78
2023/04/21 13:10:12;;;;;;;4.72;2.80;;;28.70;37.10;;;;;;5029221;28;20199;-84
2023/04/21 13:12:40;;;;;;;4.15;2.70;;;28.00;37.80;;;;;;5033206;28;20610;-79
2023/04/21 13:15:08;;;;;;;3.78;2.50;;;28.00;37.40;;;;;;5032870;28;20191;-77
2023/04/21 13:17:35;;;;;;;3.83;2.75;;;28.40;37.80;;;;;;5032319;28;20211;-76
2023/04/21 13:20:03;;;;;;;3.65;2.45;;;28.60;38.30;;;;;;5014817;28;20659;-76